createdAt,value
2022-10-28T00:00:32.334Z,101786.22
2022-10-28T00:03:01.989Z,101785.00
2022-10-28T00:05:33.547Z,101794.84
2022-10-28T00:08:00.483Z,101812.38
2022-10-28T00:10:27.212Z,101808.16
2022-10-28T00:12:54.078Z,101791.16
2022-10-28T00:15:20.999Z,101775.22
2022-10-28T00:17:47.813Z,101735.38
2022-10-28T00:20:15.989Z,101710.50
2022-10-28T00:22:43.593Z,101696.72
2022-10-28T00:25:10.947Z,101686.59
2022-10-28T00:27:37.842Z,101688.28
2022-10-28T00:30:05.013Z,101706.09
2022-10-28T00:32:31.961Z,101701.19
2022-10-28T00:34:59.016Z,101698.59
2022-10-28T00:37:25.834Z,101768.22
2022-10-28T00:39:52.671Z,101772.16
2022-10-28T00:42:22.542Z,101768.75
2022-10-28T00:45:00.570Z,101771.63
2022-10-28T00:47:36.754Z,101756.75
2022-10-28T00:50:10.031Z,101752.09
2022-10-28T00:52:37.308Z,101753.34
2022-10-28T00:55:04.712Z,101750.72
2022-10-28T00:57:34.932Z,101749.50
2022-10-28T01:00:05.583Z,101744.22
2022-10-28T01:02:37.884Z,101747.88
2022-10-28T01:05:05.016Z,101754.22
2022-10-28T01:07:31.912Z,101751.72
2022-10-28T01:09:58.832Z,101750.22
2022-10-28T01:12:44.362Z,101751.31
2022-10-28T01:15:15.722Z,101749.97
2022-10-28T01:18:05.944Z,101732.00
2022-10-28T01:20:41.547Z,101738.66
2022-10-28T01:23:34.105Z,101736.59
2022-10-28T01:26:13.241Z,101721.75
2022-10-28T01:28:58.596Z,101726.03
2022-10-28T01:31:31.007Z,101721.22
2022-10-28T01:34:22.546Z,101734.22
2022-10-28T01:37:02.049Z,101720.69
2022-10-28T01:39:50.458Z,101720.59
2022-10-28T01:42:33.753Z,101711.03
2022-10-28T01:45:22.455Z,101706.94
2022-10-28T01:48:01.878Z,101700.06
2022-10-28T01:50:46.762Z,101699.53
2022-10-28T01:53:18.047Z,101705.78
2022-10-28T01:55:51.964Z,101706.13
2022-10-28T01:58:23.609Z,101706.69
2022-10-28T02:00:51.524Z,101705.50
2022-10-28T02:03:18.574Z,101695.50
2022-10-28T02:05:48.498Z,101701.06
2022-10-28T02:08:18.440Z,101694.50
2022-10-28T02:11:19.964Z,101698.09
2022-10-28T02:14:17.991Z,101693.38
2022-10-28T02:17:06.617Z,101699.78
2022-10-28T02:19:48.211Z,101694.94
2022-10-28T02:22:27.305Z,101696.75
2022-10-28T02:25:06.339Z,101693.19
2022-10-28T02:27:43.652Z,101693.47
2022-10-28T02:30:20.699Z,101691.13
2022-10-28T02:32:52.923Z,101687.28
2022-10-28T02:35:31.045Z,101686.47
2022-10-28T02:38:02.211Z,101683.72
2022-10-28T02:40:32.882Z,101685.59
2022-10-28T02:43:03.723Z,101676.03
2022-10-28T02:45:43.156Z,101675.31
2022-10-28T02:48:15.224Z,101675.75
2022-10-28T02:50:49.772Z,101665.84
2022-10-28T02:56:00.771Z,101660.50
2022-10-28T02:58:27.838Z,101650.47
2022-10-28T03:00:54.630Z,101653.63
2022-10-28T03:03:21.948Z,101644.75
2022-10-28T03:05:48.831Z,101649.84
2022-10-28T03:08:15.597Z,101648.22
2022-10-28T03:10:42.314Z,101655.31
2022-10-28T03:13:09.141Z,101647.78
2022-10-28T03:15:35.894Z,101637.81
2022-10-28T03:18:02.786Z,101639.31
2022-10-28T03:20:29.653Z,101637.72
2022-10-28T03:22:56.670Z,101635.28
2022-10-28T03:25:23.744Z,101636.63
2022-10-28T03:27:50.622Z,101631.81
2022-10-28T03:30:18.580Z,101638.06
2022-10-28T03:32:45.588Z,101639.59
2022-10-28T03:35:12.573Z,101639.59
2022-10-28T03:37:43.355Z,101636.38
2022-10-28T03:40:11.430Z,101644.22
2022-10-28T03:42:41.212Z,101635.03
2022-10-28T03:45:09.399Z,101624.66
2022-10-28T03:47:36.639Z,101630.66
2022-10-28T03:50:04.135Z,101630.66
2022-10-28T03:52:30.972Z,101625.09
2022-10-28T03:54:57.839Z,101621.53
2022-10-28T03:57:24.973Z,101617.50
2022-10-28T03:59:51.963Z,101623.50
2022-10-28T04:02:19.120Z,101625.47
2022-10-28T04:04:46.280Z,101627.53
2022-10-28T04:07:13.023Z,101623.50
2022-10-28T04:09:39.784Z,101617.19
2022-10-28T04:12:07.171Z,101616.91
2022-10-28T04:14:33.974Z,101622.00
2022-10-28T04:17:00.836Z,101619.47
2022-10-28T04:19:27.808Z,101617.75
2022-10-28T04:21:54.562Z,101611.41
2022-10-28T04:24:21.698Z,101604.63
2022-10-28T04:26:48.578Z,101601.50
2022-10-28T04:29:15.560Z,101612.22
2022-10-28T04:31:42.334Z,101609.34
2022-10-28T04:34:09.313Z,101611.22
2022-10-28T04:36:36.092Z,101609.63
2022-10-28T04:39:03.545Z,101602.09
2022-10-28T04:41:30.409Z,101604.09
2022-10-28T04:43:57.260Z,101596.13
2022-10-28T04:46:24.069Z,101603.53
2022-10-28T04:48:51.134Z,101601.16
2022-10-28T04:51:18.203Z,101588.38
2022-10-28T04:53:45.114Z,101582.81
2022-10-28T04:56:12.197Z,101590.69
2022-10-28T04:58:38.999Z,101582.72
2022-10-28T05:01:07.493Z,101584.44
2022-10-28T05:03:35.110Z,101586.78
2022-10-28T05:06:02.474Z,101581.59
2022-10-28T05:08:29.256Z,101584.34
2022-10-28T05:10:56.104Z,101589.16
2022-10-28T05:13:22.903Z,101585.97
2022-10-28T05:15:50.033Z,101586.78
2022-10-28T05:18:17.738Z,101589.88
2022-10-28T05:20:44.531Z,101583.09
2022-10-28T05:23:12.282Z,101575.59
2022-10-28T05:25:39.219Z,101585.88
2022-10-28T05:28:06.012Z,101575.13
2022-10-28T05:30:32.767Z,101579.72
2022-10-28T05:33:03.936Z,101582.66
2022-10-28T05:35:31.461Z,101574.78
2022-10-28T05:37:58.553Z,101573.19
2022-10-28T05:40:25.804Z,101570.41
2022-10-28T05:42:52.933Z,101566.13
2022-10-28T05:45:20.459Z,101569.97
2022-10-28T05:47:48.475Z,101568.34
2022-10-28T05:50:17.553Z,101556.22
2022-10-28T05:52:52.348Z,101559.88
2022-10-28T05:55:21.365Z,101559.53
2022-10-28T05:57:49.767Z,101570.59
2022-10-28T06:00:21.919Z,101564.63
2022-10-28T06:02:48.700Z,101563.19
2022-10-28T06:05:15.801Z,101570.31
2022-10-28T06:07:43.247Z,101567.25
2022-10-28T06:10:11.226Z,101564.91
2022-10-28T06:12:36.518Z,101564.56
2022-10-28T06:15:03.905Z,101561.31
2022-10-28T06:17:30.659Z,101556.59
2022-10-28T06:19:57.450Z,101554.72
2022-10-28T06:22:24.390Z,101559.47
2022-10-28T06:24:51.198Z,101561.41
2022-10-28T06:27:17.999Z,101560.97
2022-10-28T06:29:45.028Z,101561.84
2022-10-28T06:32:11.805Z,101552.41
2022-10-28T06:34:38.582Z,101550.53
2022-10-28T06:37:05.859Z,101550.88
2022-10-28T06:39:33.052Z,101554.81
2022-10-28T06:42:00.055Z,101554.44
2022-10-28T06:44:26.839Z,101558.03
2022-10-28T06:46:56.300Z,101562.03
2022-10-28T06:49:23.384Z,101559.69
2022-10-28T06:51:50.303Z,101558.47
2022-10-28T06:54:17.373Z,101563.75
2022-10-28T06:56:45.610Z,101564.25
2022-10-28T06:59:12.603Z,101572.28
2022-10-28T07:01:41.035Z,101572.47
2022-10-28T07:04:11.923Z,101578.88
2022-10-28T07:06:39.585Z,101579.41
2022-10-28T07:09:07.288Z,101573.94
2022-10-28T07:11:34.090Z,101569.44
2022-10-28T07:14:01.582Z,101576.22
2022-10-28T07:16:28.448Z,101567.28
2022-10-28T07:18:55.284Z,101566.97
2022-10-28T07:21:25.736Z,101577.69
2022-10-28T07:23:52.628Z,101591.72
2022-10-28T07:26:19.532Z,101585.59
2022-10-28T07:28:46.354Z,101584.16
2022-10-28T07:31:13.284Z,101583.03
2022-10-28T07:33:40.190Z,101597.34
2022-10-28T07:36:08.324Z,101584.00
2022-10-28T07:38:35.290Z,101579.03
2022-10-28T07:41:09.908Z,101576.78
2022-10-28T07:43:38.042Z,101582.03
2022-10-28T07:46:06.869Z,101590.84
2022-10-28T07:48:35.009Z,101589.38
2022-10-28T07:51:04.539Z,101587.09
2022-10-28T07:53:31.955Z,101585.63
2022-10-28T07:56:04.250Z,101581.03
2022-10-28T07:58:31.387Z,101579.56
2022-10-28T08:01:05.567Z,101583.63
2022-10-28T08:03:38.597Z,101589.28
2022-10-28T08:06:18.050Z,101587.81
2022-10-28T08:08:47.181Z,101587.94
2022-10-28T08:11:16.633Z,101584.84
2022-10-28T08:13:43.365Z,101585.78
2022-10-28T08:16:10.378Z,101579.94
2022-10-28T08:18:38.707Z,101584.88
2022-10-28T08:21:07.763Z,101584.22
2022-10-28T08:23:35.502Z,101592.72
2022-10-28T08:26:02.584Z,101594.41
2022-10-28T08:28:29.477Z,101590.94
2022-10-28T08:31:08.218Z,101593.44
2022-10-28T08:33:41.058Z,101601.50
2022-10-28T08:36:09.381Z,101604.41
2022-10-28T08:38:36.201Z,101614.44
2022-10-28T08:41:13.288Z,101597.03
2022-10-28T08:43:57.350Z,101604.31
2022-10-28T08:46:37.325Z,101604.78
2022-10-28T08:49:12.168Z,101602.91
2022-10-28T08:52:12.499Z,101608.94
2022-10-28T08:54:47.497Z,101606.25
2022-10-28T08:57:22.148Z,101610.25
2022-10-28T08:59:52.876Z,101597.56
2022-10-28T09:02:24.268Z,101604.34
2022-10-28T09:05:11.626Z,101614.72
2022-10-28T09:07:38.578Z,101623.88
2022-10-28T09:10:06.328Z,101608.34
2022-10-28T09:12:45.206Z,101621.09
2022-10-28T09:15:18.135Z,101623.53
2022-10-28T09:17:52.252Z,101610.78
2022-10-28T09:20:28.342Z,101615.09
2022-10-28T09:22:59.324Z,101607.94
2022-10-28T09:26:03.134Z,101609.53
2022-10-28T09:28:54.877Z,101613.56
2022-10-28T09:31:30.064Z,101617.63
2022-10-28T09:34:17.839Z,101618.47
2022-10-28T09:37:06.440Z,101611.00
2022-10-28T09:39:42.184Z,101611.06
2022-10-28T09:42:18.154Z,101617.06
2022-10-28T09:44:55.550Z,101611.56
2022-10-28T09:47:37.327Z,101621.56
2022-10-28T09:50:14.201Z,101619.16
2022-10-28T09:53:08.728Z,101614.44
2022-10-28T09:55:35.748Z,101614.84
2022-10-28T09:58:04.420Z,101622.09
2022-10-28T10:00:31.784Z,101613.00
2022-10-28T10:02:59.642Z,101611.44
2022-10-28T10:05:27.927Z,101611.44
2022-10-28T10:07:58.633Z,101616.69
2022-10-28T10:10:31.907Z,101617.94
2022-10-28T10:13:03.507Z,101614.41
2022-10-28T10:15:45.593Z,101613.66
2022-10-28T10:18:24.678Z,101617.69
2022-10-28T10:20:55.860Z,101611.78
2022-10-28T10:23:31.935Z,101615.81
2022-10-28T10:26:06.866Z,101617.41
2022-10-28T10:28:40.215Z,101613.41
2022-10-28T10:31:08.757Z,101611.00
2022-10-28T10:33:39.543Z,101611.81
2022-10-28T10:36:17.477Z,101611.06
2022-10-28T10:38:50.493Z,101617.41
2022-10-28T10:41:37.682Z,101611.78
2022-10-28T10:44:22.731Z,101616.13
2022-10-28T10:46:55.590Z,101588.69
2022-10-28T10:49:22.372Z,101600.31
2022-10-28T10:51:53.928Z,101594.38
2022-10-28T10:54:21.777Z,101592.03
2022-10-28T10:56:48.819Z,101592.09
2022-10-28T10:59:29.311Z,101587.78
2022-10-28T11:01:58.452Z,101585.84
2022-10-28T11:04:28.472Z,101579.91
2022-10-28T11:06:58.024Z,101578.34
2022-10-28T11:09:33.762Z,101581.94
2022-10-28T11:12:00.745Z,101571.56
2022-10-28T11:14:30.306Z,101566.00
2022-10-28T11:16:59.364Z,101554.81
2022-10-28T11:19:30.294Z,101538.84
2022-10-28T11:22:12.331Z,101546.81
2022-10-28T11:24:57.077Z,101541.25
2022-10-28T11:27:57.456Z,101527.28
2022-10-28T11:30:39.690Z,101522.88
2022-10-28T11:33:29.462Z,101525.28
2022-10-28T11:36:04.437Z,101530.47
2022-10-28T11:38:44.616Z,101537.63
2022-10-28T11:41:43.727Z,101537.22
2022-10-28T11:44:36.333Z,101532.44
2022-10-28T11:47:28.229Z,101531.25
2022-10-28T11:50:21.101Z,101521.25
2022-10-28T11:53:05.320Z,101538.00
2022-10-28T11:55:41.749Z,101530.41
2022-10-28T12:00:48.608Z,101542.78
2022-10-28T12:03:15.720Z,101542.41
2022-10-28T12:05:56.065Z,101538.81
2022-10-28T12:08:41.721Z,101548.81
2022-10-28T12:11:20.718Z,101555.22
2022-10-28T12:14:14.925Z,101548.44
2022-10-28T12:17:03.953Z,101552.41
2022-10-28T12:19:39.965Z,101552.00
2022-10-28T12:22:19.596Z,101553.22
2022-10-28T12:24:47.083Z,101542.78
2022-10-28T12:27:22.694Z,101552.78
2022-10-28T12:29:53.329Z,101555.97
2022-10-28T12:32:26.593Z,101553.97
2022-10-28T12:35:07.983Z,101568.34
2022-10-28T12:37:44.718Z,101565.16
2022-10-28T12:40:22.996Z,101559.56
2022-10-28T12:43:12.208Z,101559.56
2022-10-28T12:45:41.637Z,101560.75
2022-10-28T12:48:29.185Z,101559.16
2022-10-28T12:51:22.363Z,101553.97
2022-10-28T12:54:14.006Z,101569.16
2022-10-28T12:56:50.014Z,101549.16
2022-10-28T12:59:30.056Z,101551.56
2022-10-28T13:02:01.459Z,101563.56
2022-10-28T13:04:29.022Z,101563.13
2022-10-28T13:07:31.432Z,101560.34
2022-10-28T13:10:29.249Z,101561.13
2022-10-28T13:13:13.529Z,101552.75
2022-10-28T13:16:01.042Z,101558.78
2022-10-28T13:18:48.997Z,101553.16
2022-10-28T13:22:00.655Z,101565.16
2022-10-28T13:24:33.507Z,101571.56
2022-10-28T13:27:04.558Z,101583.56
2022-10-28T13:29:34.836Z,101586.75
2022-10-28T13:32:02.246Z,101603.16
2022-10-28T13:34:40.245Z,101592.00
2022-10-28T13:37:19.131Z,101594.38
2022-10-28T13:39:47.613Z,101592.34
2022-10-28T13:42:18.313Z,101585.56
2022-10-28T13:45:33.448Z,101582.00
2022-10-28T13:48:37.751Z,101581.59
2022-10-28T13:51:10.767Z,101591.16
2022-10-28T13:53:56.952Z,101576.41
2022-10-28T13:56:26.901Z,101575.59
2022-10-28T13:59:02.181Z,101578.38
2022-10-28T14:01:41.600Z,101584.38
2022-10-28T14:04:27.987Z,101583.97
2022-10-28T14:07:05.828Z,101596.34
2022-10-28T14:09:35.648Z,101599.13
2022-10-28T14:12:14.841Z,101609.50
2022-10-28T14:15:13.978Z,101569.97
2022-10-28T14:17:45.317Z,101601.91
2022-10-28T14:20:27.072Z,101609.09
2022-10-28T14:22:54.525Z,101625.47
2022-10-28T14:25:44.660Z,101612.28
2022-10-28T14:28:29.872Z,101612.25
2022-10-28T14:31:11.821Z,101618.63
2022-10-28T14:33:54.191Z,101612.22
2022-10-28T14:36:20.961Z,101627.38
2022-10-28T14:39:19.950Z,101620.19
2022-10-28T14:42:24.118Z,101625.72
2022-10-28T14:45:31.859Z,101618.91
2022-10-28T14:48:27.586Z,101628.88
2022-10-28T14:50:55.392Z,101639.25
2022-10-28T14:53:32.159Z,101629.22
2022-10-28T14:56:03.279Z,101628.00
2022-10-28T14:58:36.840Z,101631.97
2022-10-28T15:01:25.734Z,101627.97
2022-10-28T15:04:01.185Z,101625.53
2022-10-28T15:06:46.970Z,101638.28
2022-10-28T15:09:22.235Z,101647.03
2022-10-28T15:11:55.898Z,101638.63
2022-10-28T15:14:27.048Z,101642.16
2022-10-28T15:16:54.119Z,101646.16
2022-10-28T15:19:23.957Z,101660.09
2022-10-28T15:22:01.360Z,101646.47
2022-10-28T15:24:28.281Z,101644.84
2022-10-28T15:26:55.975Z,101657.91
2022-10-28T15:29:24.002Z,101661.44
2022-10-28T15:32:03.918Z,101661.41
2022-10-28T15:34:30.993Z,101668.16
2022-10-28T15:39:30.333Z,101675.63
2022-10-28T15:41:58.038Z,101674.03
2022-10-28T15:44:32.299Z,101679.16
2022-10-28T15:47:02.628Z,101686.72
2022-10-28T15:49:35.697Z,101690.25
2022-10-28T15:52:21.809Z,101689.41
2022-10-28T15:54:55.909Z,101694.59
2022-10-28T15:57:29.063Z,101690.56
2022-10-28T16:00:32.226Z,101706.06
2022-10-28T16:03:05.608Z,101704.84
2022-10-28T16:05:32.641Z,101711.97
2022-10-28T16:08:34.989Z,101708.34
2022-10-28T16:11:03.291Z,101704.75
2022-10-28T16:13:36.620Z,101700.34
2022-10-28T16:16:15.664Z,101707.22
2022-10-28T16:18:49.688Z,101712.50
2022-10-28T16:21:20.735Z,101712.13
2022-10-28T16:23:51.689Z,101711.69
2022-10-28T16:26:18.446Z,101717.66
2022-10-28T16:28:45.565Z,101734.78
2022-10-28T16:31:16.536Z,101733.97
2022-10-28T16:33:43.929Z,101736.34
2022-10-28T16:36:11.347Z,101742.28
2022-10-28T16:38:38.872Z,101742.63
2022-10-28T16:41:11.048Z,101747.78
2022-10-28T16:43:37.955Z,101751.75
2022-10-28T16:46:05.006Z,101739.78
2022-10-28T16:48:32.582Z,101746.13
2022-10-28T16:51:02.723Z,101753.25
2022-10-28T16:53:29.751Z,101773.13
2022-10-28T16:55:59.177Z,101767.19
2022-10-28T16:58:28.127Z,101767.19
2022-10-28T17:00:56.327Z,101760.31
2022-10-28T17:03:23.377Z,101770.59
2022-10-28T17:05:50.454Z,101768.13
2022-10-28T17:08:26.461Z,101767.28
2022-10-28T17:11:04.975Z,101773.56
2022-10-28T17:13:32.023Z,101778.25
2022-10-28T17:15:58.904Z,101790.56
2022-10-28T17:18:25.935Z,101796.06
2022-10-28T17:21:00.886Z,101790.47
2022-10-28T17:23:28.730Z,101798.81
2022-10-28T17:26:00.568Z,101799.94
2022-10-28T17:28:27.846Z,101800.31
2022-10-28T17:31:01.389Z,101809.91
2022-10-28T17:33:28.286Z,101811.94
2022-10-28T17:35:55.302Z,101810.00
2022-10-28T17:38:22.221Z,101820.34
2022-10-28T17:40:55.726Z,101822.63
2022-10-28T17:43:23.605Z,101820.91
2022-10-28T17:45:51.212Z,101824.44
2022-10-28T17:48:18.362Z,101824.81
2022-10-28T17:50:53.045Z,101834.28
2022-10-28T17:53:20.346Z,101832.69
2022-10-28T17:55:55.908Z,101842.19
2022-10-28T17:58:23.137Z,101842.25
2022-10-28T18:00:55.547Z,101841.50
2022-10-28T18:03:22.315Z,101837.53
2022-10-28T18:05:49.293Z,101845.53
2022-10-28T18:08:16.175Z,101845.53
2022-10-28T18:10:55.059Z,101853.44
2022-10-28T18:13:30.225Z,101853.75
2022-10-28T18:16:03.156Z,101849.72
2022-10-28T18:18:30.150Z,101843.00
2022-10-28T18:20:57.009Z,101853.31
2022-10-28T18:23:24.477Z,101862.47
2022-10-28T18:26:02.588Z,101869.28
2022-10-28T18:28:34.082Z,101875.66
2022-10-28T18:31:07.750Z,101869.63
2022-10-28T18:33:35.242Z,101870.69
2022-10-28T18:36:07.858Z,101884.66
2022-10-28T18:38:34.702Z,101895.41
2022-10-28T18:41:01.670Z,101898.16
2022-10-28T18:43:29.441Z,101901.59
2022-10-28T18:46:04.493Z,101907.44
2022-10-28T18:48:31.633Z,101922.16
2022-10-28T18:51:01.126Z,101922.97
2022-10-28T18:53:28.690Z,101923.03
2022-10-28T18:56:01.509Z,101919.09
2022-10-28T18:58:28.416Z,101907.09
2022-10-28T19:01:04.380Z,101902.28
2022-10-28T19:03:31.297Z,101914.19
2022-10-28T19:06:12.610Z,101909.88
2022-10-28T19:08:40.369Z,101909.81
2022-10-28T19:11:08.502Z,101927.16
2022-10-28T19:13:37.154Z,101924.75
2022-10-28T19:16:05.025Z,101924.75
2022-10-28T19:18:38.626Z,101923.13
2022-10-28T19:21:16.110Z,101924.69
2022-10-28T19:23:43.804Z,101925.03
2022-10-28T19:26:12.265Z,101934.56
2022-10-28T19:28:41.218Z,101932.78
2022-10-28T19:31:14.216Z,101945.38
2022-10-28T19:33:43.204Z,101953.22
2022-10-28T19:36:14.540Z,101956.69
2022-10-28T19:38:41.427Z,101963.44
2022-10-28T19:41:11.387Z,101969.81
2022-10-28T19:43:38.763Z,101969.44
2022-10-28T19:46:16.771Z,101961.09
2022-10-28T19:48:46.720Z,101966.22
2022-10-28T19:51:22.508Z,101976.09
2022-10-28T19:53:51.036Z,101976.75
2022-10-28T19:56:19.601Z,101986.16
2022-10-28T19:58:59.070Z,101982.84
2022-10-28T20:01:29.077Z,101969.53
2022-10-28T20:03:56.399Z,101977.72
2022-10-28T20:06:25.705Z,101981.22
2022-10-28T20:08:53.089Z,101988.31
2022-10-28T20:11:25.781Z,101993.03
2022-10-28T20:14:01.053Z,102007.81
2022-10-28T20:16:28.634Z,102004.59
2022-10-28T20:18:56.820Z,102008.09
2022-10-28T20:21:26.396Z,102008.72
2022-10-28T20:23:55.330Z,102004.91
2022-10-28T20:26:30.536Z,102013.41
2022-10-28T20:28:58.659Z,102010.00
2022-10-28T20:31:27.811Z,102021.72
2022-10-28T20:34:03.964Z,102023.69
2022-10-28T20:36:31.939Z,102032.22
2022-10-28T20:39:00.703Z,102029.88
2022-10-28T20:41:30.880Z,102031.50
2022-10-28T20:43:57.824Z,102029.88
2022-10-28T20:46:25.697Z,102030.34
2022-10-28T20:48:54.458Z,102029.16
2022-10-28T20:51:23.163Z,102026.22
2022-10-28T20:53:50.531Z,102019.66
2022-10-28T20:56:23.678Z,102034.25
2022-10-28T20:58:51.085Z,102027.03
2022-10-28T21:01:21.112Z,102026.94
2022-10-28T21:03:49.428Z,102038.63
2022-10-28T21:06:17.529Z,102025.25
2022-10-28T21:08:44.713Z,102032.91
2022-10-28T21:11:14.686Z,102041.78
2022-10-28T21:13:41.964Z,102036.38
2022-10-28T21:16:11.629Z,102031.78
2022-10-28T21:18:39.866Z,102021.53
2022-10-28T21:21:07.075Z,102020.44
2022-10-28T21:23:33.906Z,102028.06
2022-10-28T21:26:02.982Z,102034.56
2022-10-28T21:28:31.361Z,102035.50
2022-10-28T21:31:07.055Z,102042.09
2022-10-28T21:33:35.944Z,102041.88
2022-10-28T21:36:06.435Z,102043.81
2022-10-28T21:38:33.329Z,102040.22
2022-10-28T21:41:17.692Z,102047.63
2022-10-28T21:43:49.535Z,102037.94
2022-10-28T21:46:20.700Z,102029.41
2022-10-28T21:48:47.861Z,102030.09
2022-10-28T21:51:16.299Z,102043.63
2022-10-28T21:53:44.515Z,102048.47
2022-10-28T21:56:19.684Z,102049.63
2022-10-28T21:58:48.632Z,102053.06
2022-10-28T22:01:23.952Z,102045.47
2022-10-28T22:03:52.387Z,102048.34
2022-10-28T22:06:19.196Z,102049.84
2022-10-28T22:08:47.053Z,102054.09
2022-10-28T22:11:19.307Z,102060.34
2022-10-28T22:13:47.194Z,102060.25
2022-10-28T22:16:16.422Z,102058.50
2022-10-28T22:18:44.289Z,102057.09
2022-10-28T22:21:15.615Z,102061.69
2022-10-28T22:23:42.790Z,102068.16
2022-10-28T22:26:12.477Z,102071.75
2022-10-28T22:28:39.705Z,102070.69
2022-10-28T22:31:08.873Z,102070.47
2022-10-28T22:33:36.272Z,102071.47
2022-10-28T22:36:09.116Z,102072.66
2022-10-28T22:38:36.204Z,102079.09
2022-10-28T22:41:21.999Z,102081.41
2022-10-28T22:43:53.965Z,102077.25
2022-10-28T22:46:21.879Z,102078.63
2022-10-28T22:48:48.895Z,102085.66
2022-10-28T22:51:16.530Z,102083.13
2022-10-28T22:53:43.579Z,102096.47
2022-10-28T22:56:15.767Z,102092.44
2022-10-28T22:58:42.760Z,102094.41
2022-10-28T23:01:12.771Z,102088.53
2022-10-28T23:03:42.433Z,102102.38
2022-10-28T23:06:10.420Z,102099.94
2022-10-28T23:08:38.740Z,102093.00
2022-10-28T23:11:06.880Z,102085.38
2022-10-28T23:13:34.424Z,102101.66
2022-10-28T23:16:09.734Z,102095.44
2022-10-28T23:18:37.117Z,102100.28
2022-10-28T23:21:10.499Z,102091.50
2022-10-28T23:23:37.501Z,102101.28
2022-10-28T23:26:04.407Z,102092.06
2022-10-28T23:28:31.632Z,102098.84
2022-10-28T23:31:03.097Z,102099.72
2022-10-28T23:33:31.074Z,102109.31
2022-10-28T23:35:59.122Z,102111.41
2022-10-28T23:38:26.326Z,102097.91
2022-10-28T23:41:05.259Z,102111.41
2022-10-28T23:43:33.027Z,102106.56
2022-10-28T23:46:00.572Z,102109.78
2022-10-28T23:48:28.626Z,102120.38
2022-10-28T23:50:55.592Z,102119.06
2022-10-28T23:53:23.097Z,102101.56
2022-10-28T23:55:50.981Z,102105.47
2022-10-28T23:58:19.780Z,102108.59
